createdAt,value
2017-10-31T00:00:23.797Z,5.20
2017-10-31T00:02:50.425Z,5.70
2017-10-31T00:05:17.003Z,5.30
2017-10-31T00:07:43.593Z,5.37
2017-10-31T00:10:10.174Z,4.60
2017-10-31T00:12:36.763Z,5.30
2017-10-31T00:15:03.352Z,5.37
2017-10-31T00:17:29.934Z,4.93
2017-10-31T00:19:56.525Z,4.70
2017-10-31T00:22:23.166Z,4.70
2017-10-31T00:24:49.750Z,5.80
2017-10-31T00:27:16.334Z,5.90
2017-10-31T00:29:42.926Z,5.50
2017-10-31T00:32:09.518Z,6.00
2017-10-31T00:34:36.101Z,6.00
2017-10-31T00:37:02.694Z,5.30
2017-10-31T00:39:29.274Z,5.90
2017-10-31T00:41:55.857Z,6.20
2017-10-31T00:44:22.555Z,5.93
2017-10-31T00:46:49.131Z,5.23
2017-10-31T00:49:15.721Z,4.93
2017-10-31T00:51:42.511Z,4.80
2017-10-31T00:54:09.074Z,5.13
2017-10-31T00:56:35.653Z,4.87
2017-10-31T00:59:02.271Z,5.33
2017-10-31T01:01:28.854Z,5.07
2017-10-31T01:06:40.097Z,5.23
2017-10-31T01:09:06.673Z,5.80
2017-10-31T01:11:33.249Z,5.23
2017-10-31T01:14:00.731Z,5.77
2017-10-31T01:16:27.311Z,6.20
2017-10-31T01:18:53.885Z,6.80
2017-10-31T01:21:20.477Z,6.67
2017-10-31T01:23:47.058Z,6.67
2017-10-31T01:26:13.633Z,6.20
2017-10-31T01:28:40.233Z,6.47
2017-10-31T01:31:06.818Z,6.80
2017-10-31T01:33:33.425Z,6.70
2017-10-31T01:36:00.014Z,6.30
2017-10-31T01:38:26.591Z,6.60
2017-10-31T01:40:53.164Z,6.80
2017-10-31T01:43:19.773Z,6.60
2017-10-31T01:45:46.353Z,6.87
2017-10-31T01:48:12.928Z,6.60
2017-10-31T01:50:39.533Z,7.43
2017-10-31T01:53:06.109Z,6.70
2017-10-31T01:55:32.688Z,6.47
2017-10-31T01:57:59.281Z,6.80
2017-10-31T02:00:25.857Z,6.47
2017-10-31T02:02:52.436Z,6.97
2017-10-31T02:05:19.029Z,5.93
2017-10-31T02:07:45.641Z,6.87
2017-10-31T02:10:12.223Z,6.30
2017-10-31T02:12:38.823Z,7.30
2017-10-31T02:15:05.441Z,7.00
2017-10-31T02:17:32.030Z,6.90
2017-10-31T02:19:58.625Z,7.13
2017-10-31T02:22:25.214Z,7.00
2017-10-31T02:24:51.812Z,7.20
2017-10-31T02:27:18.410Z,6.43
2017-10-31T02:29:44.990Z,6.70
2017-10-31T02:32:11.622Z,6.60
2017-10-31T02:34:38.220Z,6.70
2017-10-31T02:37:04.798Z,6.73
2017-10-31T02:39:31.389Z,6.70
2017-10-31T02:41:57.992Z,6.50
2017-10-31T02:44:24.625Z,6.27
2017-10-31T02:46:51.356Z,6.33
2017-10-31T02:49:17.968Z,6.50
2017-10-31T02:51:44.550Z,6.70
2017-10-31T02:54:11.131Z,5.90
2017-10-31T02:56:37.721Z,6.77
2017-10-31T02:59:04.342Z,6.73
2017-10-31T03:01:30.917Z,6.67
2017-10-31T03:03:57.543Z,6.60
2017-10-31T03:06:24.149Z,6.83
2017-10-31T03:08:50.753Z,6.77
2017-10-31T03:11:17.353Z,6.40
2017-10-31T03:13:44.023Z,6.27
2017-10-31T03:16:10.602Z,6.60
2017-10-31T03:18:37.225Z,6.57
2017-10-31T03:21:03.797Z,6.47
2017-10-31T03:23:30.372Z,6.60
2017-10-31T03:25:57.001Z,5.90
2017-10-31T03:28:23.611Z,6.23
2017-10-31T03:30:50.178Z,6.47
2017-10-31T03:33:16.876Z,6.57
2017-10-31T03:35:43.465Z,6.60
2017-10-31T03:38:10.055Z,6.40
2017-10-31T03:40:36.650Z,6.50
2017-10-31T03:43:03.237Z,6.10
2017-10-31T03:45:29.813Z,6.50
2017-10-31T03:47:56.409Z,6.30
2017-10-31T03:50:22.994Z,6.10
2017-10-31T03:52:49.585Z,6.57
2017-10-31T03:55:16.176Z,6.40
2017-10-31T03:57:42.782Z,6.27
2017-10-31T04:00:09.386Z,6.37
2017-10-31T04:02:35.985Z,6.37
2017-10-31T04:05:02.597Z,6.73
2017-10-31T04:07:29.169Z,5.93
2017-10-31T04:09:55.760Z,6.20
2017-10-31T04:12:22.345Z,5.60
2017-10-31T04:14:48.938Z,6.23
2017-10-31T04:17:15.549Z,6.03
2017-10-31T04:19:42.133Z,5.40
2017-10-31T04:22:08.710Z,6.33
2017-10-31T04:24:35.318Z,5.90
2017-10-31T04:27:01.904Z,6.33
2017-10-31T04:29:28.491Z,6.63
2017-10-31T04:31:55.087Z,5.80
2017-10-31T04:34:21.786Z,6.10
2017-10-31T04:36:48.361Z,5.90
2017-10-31T04:39:14.955Z,6.40
2017-10-31T04:41:41.534Z,6.30
2017-10-31T04:44:08.150Z,6.40
2017-10-31T04:46:34.756Z,6.13
2017-10-31T04:49:01.333Z,6.00
2017-10-31T04:51:27.920Z,6.17
2017-10-31T04:53:54.513Z,6.07
2017-10-31T04:56:21.162Z,6.23
2017-10-31T04:58:47.742Z,6.03
2017-10-31T05:01:14.384Z,6.20
2017-10-31T05:03:40.945Z,6.10
2017-10-31T05:06:07.526Z,6.53
2017-10-31T05:08:34.121Z,6.27
2017-10-31T05:11:00.696Z,6.40
2017-10-31T05:13:27.282Z,6.40
2017-10-31T05:15:53.878Z,6.23
2017-10-31T05:18:20.457Z,6.40
2017-10-31T05:20:47.037Z,6.10
2017-10-31T05:23:13.631Z,6.30
2017-10-31T05:25:40.205Z,6.73
2017-10-31T05:28:06.783Z,6.27
2017-10-31T05:30:33.428Z,6.37
2017-10-31T05:32:59.997Z,6.70
2017-10-31T05:35:26.569Z,6.70
2017-10-31T05:37:53.161Z,6.50
2017-10-31T05:40:19.741Z,6.50
2017-10-31T05:42:46.322Z,6.20
2017-10-31T05:45:12.904Z,5.30
2017-10-31T05:47:39.485Z,5.77
2017-10-31T05:50:06.071Z,5.77
2017-10-31T05:52:32.665Z,5.70
2017-10-31T05:54:59.246Z,6.43
2017-10-31T05:57:25.846Z,6.17
2017-10-31T05:59:52.434Z,6.00
2017-10-31T06:02:19.013Z,6.30
2017-10-31T06:04:45.582Z,5.43
2017-10-31T06:07:12.179Z,5.80
2017-10-31T06:09:38.762Z,5.50
2017-10-31T06:12:05.329Z,5.90
2017-10-31T06:14:31.926Z,6.20
2017-10-31T06:16:58.496Z,5.43
2017-10-31T06:19:25.078Z,5.53
2017-10-31T06:21:57.316Z,6.07
2017-10-31T06:24:29.569Z,6.20
2017-10-31T06:27:01.745Z,6.20
2017-10-31T06:29:34.053Z,6.70
2017-10-31T06:32:06.394Z,6.43
2017-10-31T06:34:32.977Z,6.07
2017-10-31T06:36:59.555Z,7.40
2017-10-31T06:39:26.147Z,6.53
2017-10-31T06:41:52.719Z,6.80
2017-10-31T06:44:19.302Z,6.50
2017-10-31T06:46:45.889Z,6.93
2017-10-31T06:49:12.473Z,7.10
2017-10-31T06:51:39.060Z,7.37
2017-10-31T06:54:05.658Z,7.60
2017-10-31T06:59:28.190Z,7.30
2017-10-31T07:01:54.770Z,7.83
2017-10-31T07:04:21.404Z,7.87
2017-10-31T07:06:48.013Z,7.63
2017-10-31T07:09:14.593Z,7.40
2017-10-31T07:11:41.173Z,7.93
2017-10-31T07:14:07.782Z,8.57
2017-10-31T07:16:34.778Z,7.53
2017-10-31T07:19:01.362Z,7.83
2017-10-31T07:21:27.975Z,8.60
2017-10-31T07:23:54.554Z,8.70
2017-10-31T07:26:21.136Z,8.30
2017-10-31T07:28:48.537Z,8.20
2017-10-31T07:31:15.152Z,8.17
2017-10-31T07:33:41.737Z,7.73
2017-10-31T07:36:08.333Z,8.83
2017-10-31T07:38:34.926Z,8.27
2017-10-31T07:41:01.506Z,8.80
2017-10-31T07:43:28.114Z,8.77
2017-10-31T07:45:54.694Z,8.07
2017-10-31T07:48:21.313Z,8.13
2017-10-31T07:50:47.922Z,9.13
2017-10-31T07:53:14.507Z,8.10
2017-10-31T07:55:41.085Z,8.50
2017-10-31T07:58:07.695Z,7.83
2017-10-31T08:00:34.275Z,8.40
2017-10-31T08:03:00.894Z,7.70
2017-10-31T08:05:27.477Z,8.10
2017-10-31T08:07:54.061Z,9.07
2017-10-31T08:10:20.646Z,8.50
2017-10-31T08:12:47.243Z,8.30
2017-10-31T08:15:13.824Z,8.90
2017-10-31T08:17:40.398Z,8.47
2017-10-31T08:20:07.038Z,8.20
2017-10-31T08:22:33.625Z,9.10
2017-10-31T08:25:00.223Z,8.53
2017-10-31T08:27:26.855Z,8.47
2017-10-31T08:29:53.439Z,8.60
2017-10-31T08:32:20.033Z,7.70
2017-10-31T08:34:46.626Z,8.30
2017-10-31T08:37:13.225Z,8.10
2017-10-31T08:39:39.806Z,8.33
2017-10-31T08:58:40.394Z,8.90
2017-10-31T09:01:06.990Z,8.57
2017-10-31T09:03:33.578Z,8.30
2017-10-31T09:06:00.153Z,7.87
2017-10-31T09:08:26.746Z,8.30
2017-10-31T09:10:53.331Z,8.10
2017-10-31T09:13:19.921Z,8.97
2017-10-31T09:15:46.512Z,8.10
2017-10-31T09:18:13.092Z,8.00
2017-10-31T09:20:39.690Z,8.00
2017-10-31T09:23:06.266Z,8.13
2017-10-31T09:25:32.870Z,7.50
2017-10-31T09:27:59.530Z,7.47
2017-10-31T09:30:26.114Z,7.83
2017-10-31T09:32:52.707Z,7.60
2017-10-31T09:35:19.281Z,7.17
2017-10-31T09:37:45.895Z,7.40
2017-10-31T09:40:12.470Z,7.90
2017-10-31T09:42:39.062Z,8.13
2017-10-31T09:45:06.047Z,7.17
2017-10-31T09:47:32.606Z,8.33
2017-10-31T09:49:59.212Z,7.50
2017-10-31T09:52:25.791Z,7.33
2017-10-31T09:54:52.366Z,9.17
2017-10-31T09:57:18.993Z,7.90
2017-10-31T09:59:45.582Z,8.53
2017-10-31T10:02:12.178Z,7.07
2017-10-31T10:04:38.762Z,7.73
2017-10-31T10:07:05.354Z,7.60
2017-10-31T10:09:31.943Z,7.60
2017-10-31T10:11:58.527Z,7.27
2017-10-31T10:14:25.131Z,7.90
2017-10-31T10:16:51.703Z,7.70
2017-10-31T10:19:18.305Z,7.73
2017-10-31T10:21:44.880Z,7.70
2017-10-31T10:24:11.466Z,6.77
2017-10-31T10:26:38.056Z,7.20
2017-10-31T10:29:04.635Z,6.80
2017-10-31T10:31:31.221Z,7.30
2017-10-31T10:33:57.798Z,6.53
2017-10-31T10:36:24.383Z,6.20
2017-10-31T10:38:50.970Z,7.37
2017-10-31T10:41:17.557Z,6.30
2017-10-31T10:43:44.158Z,6.30
2017-10-31T10:46:10.835Z,6.67
2017-10-31T10:48:37.398Z,6.70
2017-10-31T10:51:03.990Z,6.53
2017-10-31T10:53:30.569Z,6.83
2017-10-31T10:55:57.231Z,6.00
2017-10-31T10:58:23.795Z,5.63
2017-10-31T11:00:50.381Z,6.20
2017-10-31T11:03:17.001Z,6.30
2017-10-31T11:05:43.563Z,5.90
2017-10-31T11:08:10.163Z,6.17
2017-10-31T11:10:36.737Z,6.10
2017-10-31T11:13:03.318Z,6.03
2017-10-31T11:15:29.902Z,5.60
2017-10-31T11:17:56.493Z,6.40
2017-10-31T11:20:23.085Z,6.27
2017-10-31T11:22:49.678Z,6.00
2017-10-31T11:25:16.258Z,6.17
2017-10-31T11:27:42.846Z,5.60
2017-10-31T11:30:09.430Z,6.20
2017-10-31T11:32:36.018Z,5.47
2017-10-31T11:35:02.604Z,5.43
2017-10-31T11:37:29.186Z,5.80
2017-10-31T11:39:55.772Z,5.27
2017-10-31T11:42:22.346Z,5.30
2017-10-31T11:44:48.966Z,5.53
2017-10-31T11:47:15.539Z,5.37
2017-10-31T11:49:42.118Z,5.77
2017-10-31T11:52:08.758Z,5.97
2017-10-31T11:54:35.314Z,4.80
2017-10-31T11:57:02.786Z,5.33
2017-10-31T11:59:29.358Z,4.77
2017-10-31T12:01:55.937Z,4.70
2017-10-31T12:04:22.530Z,4.60
2017-10-31T12:06:49.114Z,4.50
2017-10-31T12:09:15.705Z,5.50
2017-10-31T12:11:42.372Z,3.63
2017-10-31T12:14:08.969Z,2.80
2017-10-31T12:16:35.555Z,3.50
2017-10-31T12:19:02.135Z,3.60
2017-10-31T12:21:29.564Z,2.70
2017-10-31T12:23:56.133Z,2.90
2017-10-31T12:26:22.744Z,3.50
2017-10-31T12:28:49.332Z,2.50
2017-10-31T12:31:16.062Z,3.43
2017-10-31T12:33:42.651Z,2.30
2017-10-31T12:36:09.226Z,2.20
2017-10-31T12:38:35.805Z,3.70
2017-10-31T12:41:02.409Z,2.40
2017-10-31T12:43:29.038Z,2.57
2017-10-31T12:45:55.630Z,2.03
2017-10-31T12:48:22.205Z,2.43
2017-10-31T12:50:48.785Z,2.17
2017-10-31T12:53:15.364Z,2.20
2017-10-31T12:55:41.941Z,2.60
2017-10-31T12:58:08.539Z,2.23
2017-10-31T13:00:35.161Z,2.73
2017-10-31T13:03:01.742Z,2.67
2017-10-31T13:05:28.330Z,2.53
2017-10-31T13:07:54.901Z,2.60
2017-10-31T13:10:21.614Z,2.47
2017-10-31T13:12:48.205Z,2.33
2017-10-31T13:15:14.785Z,2.20
2017-10-31T13:17:41.390Z,2.50
2017-10-31T13:20:08.001Z,2.90
2017-10-31T13:22:34.694Z,2.70
2017-10-31T13:25:02.270Z,2.90
2017-10-31T13:27:28.998Z,2.90
2017-10-31T13:29:55.746Z,3.00
2017-10-31T13:32:22.587Z,3.03
2017-10-31T13:34:49.378Z,3.30
2017-10-31T13:37:17.152Z,3.63
2017-10-31T13:39:43.914Z,3.27
2017-10-31T13:42:10.698Z,3.08
2017-10-31T13:44:37.410Z,3.13
2017-10-31T13:47:04.265Z,3.40
2017-10-31T13:49:31.057Z,3.27
2017-10-31T13:51:57.754Z,3.10
2017-10-31T13:54:24.338Z,3.90
2017-10-31T13:56:50.913Z,3.63
2017-10-31T13:59:17.507Z,3.27
2017-10-31T14:01:44.152Z,3.10
2017-10-31T14:04:10.897Z,3.30
2017-10-31T14:06:37.642Z,3.60
2017-10-31T14:09:04.353Z,3.73
2017-10-31T14:11:31.177Z,4.60
2017-10-31T14:13:57.875Z,3.20
2017-10-31T14:16:24.445Z,3.00
2017-10-31T14:18:51.106Z,2.60
2017-10-31T14:21:17.909Z,2.90
2017-10-31T14:23:44.482Z,2.90
2017-10-31T14:26:11.066Z,3.40
2017-10-31T14:28:37.649Z,3.03
2017-10-31T14:31:04.226Z,3.23
2017-10-31T14:33:30.801Z,2.90
2017-10-31T14:35:57.393Z,3.10
2017-10-31T14:38:23.977Z,3.03
2017-10-31T14:40:50.585Z,17.47
2017-10-31T14:43:17.186Z,10.20
2017-10-31T14:45:43.761Z,3.10
2017-10-31T14:48:10.350Z,3.20
2017-10-31T14:50:36.929Z,3.87
2017-10-31T14:53:03.521Z,3.40
2017-10-31T14:55:30.102Z,3.30
2017-10-31T14:57:56.693Z,2.90
2017-10-31T15:00:23.281Z,3.27
2017-10-31T15:02:49.867Z,3.00
2017-10-31T15:05:16.467Z,3.67
2017-10-31T15:07:43.050Z,3.27
2017-10-31T15:10:09.629Z,2.67
2017-10-31T15:12:36.223Z,3.30
2017-10-31T15:15:02.805Z,3.50
2017-10-31T15:17:29.402Z,3.63
2017-10-31T15:19:55.973Z,3.10
2017-10-31T15:22:22.558Z,3.40
2017-10-31T15:24:49.137Z,3.20
2017-10-31T15:27:15.715Z,3.43
2017-10-31T15:29:42.301Z,3.57
2017-10-31T15:32:08.901Z,3.50
2017-10-31T15:34:35.484Z,3.40
2017-10-31T15:37:02.063Z,3.30
2017-10-31T15:39:28.654Z,3.50
2017-10-31T15:41:55.246Z,3.20
2017-10-31T15:44:21.835Z,3.83
2017-10-31T15:46:48.419Z,3.30
2017-10-31T15:49:15.004Z,3.17
2017-10-31T15:51:41.577Z,4.83
2017-10-31T15:54:08.170Z,5.00
2017-10-31T15:56:34.746Z,4.93
2017-10-31T15:59:01.336Z,4.80
2017-10-31T16:01:27.929Z,4.13
2017-10-31T16:03:54.521Z,4.33
2017-10-31T16:06:21.129Z,4.50
2017-10-31T16:08:47.726Z,5.77
2017-10-31T16:11:14.325Z,6.20
2017-10-31T16:13:40.913Z,6.30
2017-10-31T16:16:07.499Z,7.07
2017-10-31T16:18:34.090Z,6.43
2017-10-31T16:21:00.682Z,6.70
2017-10-31T16:23:27.263Z,6.93
2017-10-31T16:25:53.921Z,6.33
2017-10-31T16:28:20.517Z,6.67
2017-10-31T16:30:47.134Z,5.77
2017-10-31T16:33:13.891Z,6.17
2017-10-31T16:35:40.472Z,6.17
2017-10-31T16:38:07.158Z,5.80
2017-10-31T16:40:33.735Z,6.17
2017-10-31T16:43:00.322Z,5.90
2017-10-31T16:45:26.905Z,5.10
2017-10-31T16:47:53.489Z,5.60
2017-10-31T16:50:20.069Z,5.00
2017-10-31T16:52:46.664Z,5.17
2017-10-31T16:55:13.344Z,5.10
2017-10-31T16:57:39.974Z,5.30
2017-10-31T17:00:06.618Z,5.00
2017-10-31T17:02:33.189Z,5.10
2017-10-31T17:04:59.823Z,4.30
2017-10-31T17:07:26.440Z,4.67
2017-10-31T17:09:53.089Z,4.20
2017-10-31T17:12:19.772Z,4.37
2017-10-31T17:14:46.337Z,4.50
2017-10-31T17:17:12.928Z,4.20
2017-10-31T17:19:39.535Z,4.33
2017-10-31T17:22:06.114Z,4.30
2017-10-31T17:24:32.733Z,3.70
2017-10-31T17:26:59.311Z,4.10
2017-10-31T17:29:25.894Z,3.80
2017-10-31T17:31:52.482Z,4.60
2017-10-31T17:34:19.069Z,4.47
2017-10-31T17:36:45.646Z,4.17
2017-10-31T17:39:12.261Z,4.53
2017-10-31T17:41:38.960Z,4.33
2017-10-31T17:44:05.537Z,4.50
2017-10-31T17:46:32.733Z,4.30
2017-10-31T17:48:59.306Z,4.30
2017-10-31T17:51:25.890Z,4.67
2017-10-31T17:53:52.504Z,4.57
2017-10-31T17:56:19.098Z,4.57
2017-10-31T17:58:45.682Z,4.77
2017-10-31T18:01:12.477Z,4.77
2017-10-31T18:03:39.058Z,4.90
2017-10-31T18:06:05.638Z,4.60
2017-10-31T18:08:32.251Z,4.87
2017-10-31T18:10:58.837Z,4.90
2017-10-31T18:13:25.420Z,5.57
2017-10-31T18:15:52.037Z,6.60
2017-10-31T18:18:18.718Z,5.33
2017-10-31T18:20:45.358Z,6.10
2017-10-31T18:23:11.939Z,6.37
2017-10-31T18:25:38.533Z,5.50
2017-10-31T18:28:05.217Z,6.23
2017-10-31T18:30:31.786Z,6.33
2017-10-31T18:32:58.384Z,5.43
2017-10-31T18:35:25.051Z,4.30
2017-10-31T18:37:51.637Z,4.93
2017-10-31T18:40:18.209Z,5.60
2017-10-31T18:42:44.813Z,6.10
2017-10-31T18:45:11.568Z,6.63
2017-10-31T18:47:38.203Z,6.90
2017-10-31T18:50:04.794Z,7.23
2017-10-31T18:52:31.373Z,7.00
2017-10-31T18:54:58.117Z,6.73
2017-10-31T18:57:24.697Z,5.43
2017-10-31T18:59:51.472Z,4.03
2017-10-31T19:02:18.132Z,4.53
2017-10-31T19:04:44.789Z,3.93
2017-10-31T19:07:11.379Z,3.47
2017-10-31T19:09:37.953Z,3.90
2017-10-31T19:12:04.687Z,3.90
2017-10-31T19:14:31.269Z,4.30
2017-10-31T19:16:57.854Z,3.90
2017-10-31T19:19:24.439Z,4.43
2017-10-31T19:21:51.035Z,4.50
2017-10-31T19:24:17.807Z,4.20
2017-10-31T19:26:44.386Z,4.30
2017-10-31T19:29:10.969Z,4.80
2017-10-31T19:31:37.559Z,5.43
2017-10-31T19:34:04.150Z,5.47
2017-10-31T19:36:30.721Z,4.90
2017-10-31T19:38:57.310Z,6.13
2017-10-31T19:41:23.894Z,6.30
2017-10-31T19:43:50.474Z,8.23
2017-10-31T19:46:17.071Z,10.60
2017-10-31T19:48:43.649Z,14.40
2017-10-31T19:51:10.303Z,10.20
2017-10-31T19:53:36.885Z,7.60
2017-10-31T19:56:03.476Z,6.60
2017-10-31T19:58:30.139Z,5.50
2017-10-31T20:00:56.717Z,6.00
2017-10-31T20:03:23.355Z,5.50
2017-10-31T20:05:49.949Z,5.67
2017-10-31T20:08:16.538Z,5.50
2017-10-31T20:10:43.150Z,19.83
2017-10-31T20:13:09.770Z,18.10
2017-10-31T20:15:36.381Z,11.40
2017-10-31T20:18:03.121Z,6.13
2017-10-31T20:20:29.722Z,5.00
2017-10-31T20:22:56.306Z,5.20
2017-10-31T20:25:22.936Z,4.97
2017-10-31T20:27:49.566Z,4.87
2017-10-31T20:30:16.164Z,4.57
2017-10-31T20:32:42.738Z,5.00
2017-10-31T20:35:09.371Z,5.63
2017-10-31T20:37:35.949Z,6.13
2017-10-31T20:40:02.554Z,5.90
2017-10-31T20:42:29.155Z,7.37
2017-10-31T20:44:55.732Z,5.67
2017-10-31T20:47:22.314Z,5.03
2017-10-31T20:49:48.892Z,5.13
2017-10-31T20:52:15.478Z,5.90
2017-10-31T20:54:42.139Z,5.93
2017-10-31T20:57:08.632Z,5.20
2017-10-31T20:59:35.210Z,5.97
2017-10-31T21:02:01.861Z,7.03
2017-10-31T21:04:28.465Z,7.07
2017-10-31T21:06:55.058Z,7.30
2017-10-31T21:09:21.633Z,7.30
2017-10-31T21:11:48.260Z,6.97
2017-10-31T21:14:14.838Z,7.40
2017-10-31T21:16:41.442Z,7.93
2017-10-31T21:19:08.021Z,6.17
2017-10-31T21:21:34.618Z,7.03
2017-10-31T21:24:01.251Z,6.57
2017-10-31T21:26:27.813Z,6.43
2017-10-31T21:28:54.405Z,6.20
2017-10-31T21:31:20.974Z,6.50
2017-10-31T21:33:47.558Z,5.03
2017-10-31T21:36:14.157Z,6.37
2017-10-31T21:38:40.742Z,5.70
2017-10-31T21:41:07.327Z,4.20
2017-10-31T21:43:33.894Z,4.60
2017-10-31T21:46:00.473Z,4.77
2017-10-31T21:48:27.059Z,4.20
2017-10-31T21:50:53.633Z,4.70
2017-10-31T21:53:20.237Z,5.10
2017-10-31T21:55:46.824Z,4.70
2017-10-31T21:58:13.411Z,4.50
2017-10-31T22:00:39.982Z,6.07
2017-10-31T22:03:06.553Z,6.70
2017-10-31T22:05:33.150Z,6.10
2017-10-31T22:07:59.730Z,6.10
2017-10-31T22:10:26.306Z,5.73
2017-10-31T22:12:52.902Z,3.83
2017-10-31T22:15:20.179Z,4.13
2017-10-31T22:17:46.783Z,3.70
2017-10-31T22:20:13.366Z,3.97
2017-10-31T22:22:39.939Z,4.13
2017-10-31T22:25:06.578Z,3.93
2017-10-31T22:27:33.161Z,4.60
2017-10-31T22:29:59.780Z,3.43
2017-10-31T22:32:26.357Z,4.20
2017-10-31T22:34:53.666Z,4.17
2017-10-31T22:37:20.250Z,4.27
2017-10-31T22:39:46.834Z,3.97
2017-10-31T22:42:13.442Z,4.00
2017-10-31T22:44:40.014Z,4.10
2017-10-31T22:47:06.684Z,4.10
2017-10-31T22:49:33.275Z,4.00
2017-10-31T22:51:59.886Z,4.10
2017-10-31T22:54:26.471Z,3.40
2017-10-31T22:56:53.052Z,3.13
2017-10-31T22:59:19.627Z,3.50
2017-10-31T23:01:46.220Z,3.70
2017-10-31T23:04:12.789Z,2.90
2017-10-31T23:06:39.382Z,3.73
2017-10-31T23:09:05.967Z,3.50
2017-10-31T23:11:32.546Z,3.57
2017-10-31T23:13:59.911Z,3.27
2017-10-31T23:16:26.488Z,3.50
2017-10-31T23:18:53.090Z,3.30
2017-10-31T23:21:19.674Z,4.07
2017-10-31T23:23:46.248Z,3.73
2017-10-31T23:26:12.838Z,4.17
2017-10-31T23:28:39.417Z,3.80
2017-10-31T23:31:06.017Z,4.10
2017-10-31T23:33:32.598Z,4.67
2017-10-31T23:35:59.179Z,5.33
2017-10-31T23:38:25.765Z,5.13
2017-10-31T23:40:52.341Z,5.07
2017-10-31T23:43:18.949Z,5.20
2017-10-31T23:45:45.531Z,4.37
2017-10-31T23:48:12.165Z,4.80
2017-10-31T23:50:38.746Z,4.93
2017-10-31T23:53:05.326Z,4.90
2017-10-31T23:55:31.914Z,5.40
2017-10-31T23:57:58.497Z,5.80
